Terminal Aerodrome Forecast
Issued by NWS

Home | Current Version | Previous Version | Text Only | Print | Product List | Glossary On
Versions: 1 2 3 4 5 6 7 8 9 10 11 12 13 14 15 16 17 18 19 20 21 22 23 24 25 26 27 28 29 30 31
000
FTUS41 KBUF 021729
TAFJHW
TAF
KJHW 021729Z 0218/0318 27009KT P6SM BKN035
     FM022300 28005KT P6SM SCT040
     FM030300 VRB03KT 4SM BR SCT060
     FM030500 00000KT 1/2SM FG BKN003
     FM031300 00000KT P6SM BKN020
     FM031600 29005KT P6SM BKN030
      AMD LTD TO CLD VIS AND WIND=

USA.gov is the U.S. government's official web portal to all federal, state and local government web resources and services.